Time;durP1;ratioP1;P1;durP2;ratioP2;P2;SDS_P1;SDS_P2;PMS_P1;PMS_P2;Temp;Humidity;BMP_temperature;BMP_pressure;BME280_temperature;BME280_humidity;BME280_pressure;Samples;Min_cycle;Max_cycle;Signal;HPM_P1;HPM_P2
2023/07/07 00:00:26;;;;;;;8.20;6.33;;;21.10;99.90;;;21.55;74.68;94996.13;4966574;28;20495;-65
2023/07/07 00:02:53;;;;;;;13.40;6.90;;;21.10;99.90;;;21.52;74.48;94996.56;4967051;28;20853;-64
2023/07/07 00:05:21;;;;;;;14.00;7.53;;;21.10;99.90;;;21.50;74.81;94995.91;4966802;28;20471;-61
2023/07/07 00:07:49;;;;;;;11.20;6.87;;;21.10;99.90;;;21.47;74.76;95002.50;4968177;28;20466;-65
2023/07/07 00:10:16;;;;;;;11.53;5.87;;;21.00;99.90;;;21.45;74.60;94993.81;4967246;28;20582;-67
2023/07/07 00:12:44;;;;;;;11.70;6.67;;;21.00;99.90;;;21.45;74.95;94993.81;4967042;28;21155;-66
2023/07/07 00:15:11;;;;;;;9.00;6.63;;;21.00;99.90;;;21.45;74.95;94995.69;4967714;28;20479;-60
2023/07/07 00:17:41;;;;;;;7.07;6.00;;;21.00;99.90;;;21.43;74.90;95000.44;4966997;28;20950;-65
2023/07/07 00:20:10;;;;;;;9.60;7.10;;;21.00;99.90;;;21.42;74.79;94993.41;4967284;28;20581;-65
2023/07/07 00:22:38;;;;;;;7.77;6.97;;;21.00;99.90;;;21.39;74.80;94985.78;4963624;28;20482;-65
2023/07/07 00:25:07;;;;;;;9.00;6.50;;;20.90;99.90;;;21.37;75.08;94993.22;4966008;28;21639;-65
2023/07/07 00:27:34;;;;;;;9.80;6.30;;;20.90;99.90;;;21.35;75.14;94993.41;4966387;28;20452;-60
2023/07/07 00:30:02;;;;;;;15.13;6.00;;;20.90;99.90;;;21.33;75.00;95000.81;4966499;28;20475;-65
2023/07/07 00:32:31;;;;;;;8.33;6.73;;;20.90;99.90;;;21.31;74.78;94998.31;4966585;28;20456;-65
2023/07/07 00:34:59;;;;;;;7.30;6.60;;;20.90;99.90;;;21.28;75.05;94993.38;4966603;28;20507;-62
2023/07/07 00:37:26;;;;;;;7.13;6.43;;;20.90;99.90;;;21.26;75.30;94995.44;4962476;28;20458;-65
2023/07/07 00:39:54;;;;;;;10.40;7.33;;;20.80;99.90;;;21.22;75.28;94994.19;4964637;28;20503;-65
2023/07/07 00:42:21;;;;;;;8.50;5.60;;;20.80;99.90;;;21.22;75.22;95001.41;4964673;28;20516;-60
2023/07/07 00:45:19;;;;;;;6.47;5.80;;;20.80;99.90;;;21.22;75.51;95001.41;4962023;28;20471;-65
2023/07/07 00:47:55;;;;;;;6.90;6.30;;;20.80;99.90;;;21.20;75.25;94995.44;4942061;28;20445;-60
2023/07/07 00:50:26;;;;;;;7.63;6.93;;;20.70;99.90;;;21.18;75.53;94997.47;4957893;28;20494;-66
2023/07/07 00:52:53;;;;;;;11.00;7.50;;;20.70;99.90;;;21.17;75.70;95003.88;4963168;28;20498;-61
2023/07/07 00:55:25;;;;;;;8.70;7.23;;;20.70;99.90;;;21.16;75.53;95004.88;4967067;28;20490;-67
2023/07/07 00:57:53;;;;;;;8.50;7.50;;;20.70;99.90;;;21.14;75.87;95003.22;4965730;28;20581;-66
2023/07/07 01:00:20;;;;;;;16.43;8.40;;;20.70;99.90;;;21.13;75.86;95001.59;4968391;28;20503;-65
2023/07/07 01:02:54;;;;;;;12.90;7.03;;;20.70;99.90;;;21.13;75.93;95014.97;4965641;28;20459;-65
2023/07/07 01:05:23;;;;;;;10.47;7.10;;;20.70;99.90;;;21.12;75.67;95009.81;4966687;28;21086;-65
2023/07/07 01:07:51;;;;;;;8.20;7.50;;;20.70;99.90;;;21.11;75.93;95009.00;4965824;28;20459;-65
2023/07/07 01:10:20;;;;;;;8.70;6.57;;;20.70;99.90;;;21.11;76.01;95008.16;4966260;28;20566;-67
2023/07/07 01:12:48;;;;;;;12.27;7.07;;;20.70;99.90;;;21.09;76.25;95011.03;4965703;28;20928;-65
2023/07/07 01:15:15;;;;;;;13.50;7.27;;;20.70;99.90;;;21.08;76.03;95004.03;4966479;28;20566;-61
2023/07/07 01:17:52;;;;;;;18.90;7.93;;;20.70;99.90;;;21.08;76.03;95003.22;4962319;28;20456;-60
2023/07/07 01:20:30;;;;;;;10.03;7.57;;;20.70;99.90;;;21.07;76.08;95004.28;4966381;28;20507;-60
2023/07/07 01:23:59;;;;;;;8.77;7.97;;;20.60;99.90;;;21.06;76.30;95002.63;4963785;28;20463;-65
2023/07/07 01:26:45;;;;;;;9.57;7.87;;;20.70;99.90;;;21.03;76.05;95001.16;4961388;28;20540;-61
2023/07/07 01:29:26;;;;;;;19.73;7.60;;;20.60;99.90;;;21.01;76.27;95007.75;4962691;28;20471;-66
2023/07/07 01:31:57;;;;;;;12.70;7.40;;;20.60;99.90;;;20.99;76.54;95007.09;4962082;28;20456;-63
2023/07/07 01:34:24;;;;;;;10.07;7.67;;;20.60;99.90;;;20.98;76.29;95010.81;4962077;28;20475;-64
2023/07/07 01:36:51;;;;;;;19.43;8.40;;;20.50;99.90;;;20.97;76.70;95012.66;4960514;28;20509;-60
2023/07/07 01:39:19;;;;;;;10.03;7.30;;;20.60;99.90;;;20.96;76.58;95021.72;4961893;28;20471;-61
2023/07/07 01:41:52;;;;;;;8.50;7.80;;;20.60;99.90;;;20.95;76.59;95014.72;4957765;28;20499;-65
2023/07/07 01:44:23;;;;;;;10.03;7.20;;;20.50;99.90;;;20.94;76.50;95007.72;4962087;28;20495;-60
2023/07/07 01:46:55;;;;;;;7.60;6.90;;;20.50;99.90;;;20.93;76.66;95011.44;4961620;28;21023;-60
2023/07/07 01:49:26;;;;;;;8.50;7.70;;;20.50;99.90;;;20.92;76.62;95005.25;4965226;28;20480;-60
2023/07/07 01:51:57;;;;;;;10.33;8.10;;;20.50;99.90;;;20.91;76.54;95008.13;4957815;28;20451;-65
2023/07/07 01:54:24;;;;;;;9.83;8.07;;;20.50;99.90;;;20.91;76.60;95002.75;4965610;28;20559;-60
2023/07/07 01:56:51;;;;;;;8.40;7.60;;;20.50;99.90;;;20.93;76.34;95003.41;4965844;28;20809;-65
2023/07/07 01:59:19;;;;;;;19.47;8.63;;;20.50;99.90;;;20.95;76.94;95004.03;4965235;28;20550;-65
2023/07/07 02:01:46;;;;;;;10.23;9.10;;;20.50;99.90;;;20.98;76.61;95006.28;4964742;28;20499;-62
2023/07/07 02:04:15;;;;;;;12.60;9.63;;;20.60;99.90;;;21.03;76.68;95009.19;4964577;28;21123;-60
2023/07/07 02:06:42;;;;;;;9.97;8.90;;;20.60;99.90;;;21.08;76.75;95004.03;4965475;28;20463;-60
2023/07/07 02:09:09;;;;;;;11.50;8.50;;;20.60;99.90;;;21.11;76.65;95002.81;4965249;28;20525;-61
2023/07/07 02:11:36;;;;;;;10.80;8.90;;;20.70;99.90;;;21.14;76.71;95003.22;4965225;28;20479;-62
2023/07/07 02:14:04;;;;;;;12.27;8.23;;;20.70;99.90;;;21.19;76.59;95005.31;4965367;28;20565;-60
2023/07/07 02:16:31;;;;;;;17.23;10.53;;;20.70;99.90;;;21.23;76.54;95005.75;4966058;28;20460;-61
2023/07/07 02:18:58;;;;;;;10.40;9.40;;;20.80;99.90;;;21.28;76.72;94998.72;4967785;28;20456;-61
2023/07/07 02:21:27;;;;;;;10.53;9.53;;;20.80;99.90;;;21.32;76.35;94999.19;4964973;28;20491;-65
2023/07/07 02:23:54;;;;;;;11.10;9.93;;;20.90;99.90;;;21.37;76.36;95007.41;4960748;28;20517;-65
2023/07/07 02:26:21;;;;;;;14.23;9.00;;;20.90;99.90;;;21.39;76.35;94999.19;4965507;28;20452;-60
2023/07/07 02:28:48;;;;;;;10.63;9.53;;;20.90;99.90;;;21.46;76.17;95005.38;4964738;28;20452;-66
2023/07/07 02:31:16;;;;;;;11.00;9.93;;;21.00;99.90;;;21.51;75.76;95008.28;4964640;28;20505;-61
2023/07/07 02:33:43;;;;;;;11.90;10.50;;;21.00;99.90;;;21.55;75.85;95009.53;4964853;28;20455;-61
2023/07/07 02:36:11;;;;;;;11.30;10.20;;;21.10;99.90;;;21.58;75.63;95008.28;4964800;28;21012;-62
2023/07/07 02:38:40;;;;;;;11.80;10.60;;;21.10;99.90;;;21.60;75.94;95006.22;4964618;28;20467;-61
2023/07/07 02:41:07;;;;;;;16.90;10.77;;;21.10;99.90;;;21.61;75.76;95013.22;4964501;28;20953;-65
2023/07/07 02:43:34;;;;;;;13.40;10.80;;;21.20;99.90;;;21.61;75.32;95000.69;4964498;28;20456;-65
2023/07/07 02:46:02;;;;;;;16.53;11.90;;;21.10;99.90;;;21.63;75.49;94995.94;4964565;28;20479;-60
2023/07/07 02:48:29;;;;;;;12.23;11.03;;;21.20;99.90;;;21.66;75.63;94998.19;4963455;28;20487;-60
2023/07/07 02:50:57;;;;;;;17.40;12.30;;;21.20;99.90;;;21.69;75.26;94998.81;4964416;28;20483;-66
2023/07/07 02:53:26;;;;;;;14.43;12.00;;;21.20;99.90;;;21.70;74.70;95000.47;4963110;28;20524;-61
2023/07/07 02:55:55;;;;;;;12.27;11.07;;;21.20;99.90;;;21.71;75.10;95004.78;4964683;28;21023;-65
2023/07/07 02:58:22;;;;;;;13.60;11.93;;;21.20;99.90;;;21.70;74.99;95017.34;4964609;28;20448;-61
2023/07/07 03:00:49;;;;;;;13.63;11.23;;;21.30;99.90;;;21.72;74.76;95012.63;4964659;28;20921;-60
2023/07/07 03:03:17;;;;;;;15.03;12.20;;;21.30;99.90;;;21.74;75.23;95009.75;4965491;28;20460;-61
2023/07/07 03:05:45;;;;;;;22.83;13.07;;;21.30;99.90;;;21.76;75.25;95019.19;4964375;28;20833;-60
2023/07/07 03:08:12;;;;;;;15.30;12.30;;;21.30;99.90;;;21.77;74.92;95020.03;4964174;28;20456;-66
2023/07/07 03:10:41;;;;;;;16.00;13.20;;;21.30;99.90;;;21.79;74.76;95023.31;4964641;28;20535;-67
2023/07/07 03:13:09;;;;;;;16.00;12.50;;;21.30;99.90;;;21.80;74.41;95017.75;4960597;28;20460;-64
2023/07/07 03:15:39;;;;;;;14.90;12.20;;;21.30;99.90;;;21.81;74.67;95024.78;4960293;28;20492;-67
2023/07/07 03:18:08;;;;;;;14.20;11.10;;;21.30;99.90;;;21.82;74.39;95015.69;4961035;28;20488;-65
2023/07/07 03:20:35;;;;;;;15.50;13.77;;;21.40;99.90;;;21.86;74.47;95016.13;4960744;28;20494;-61
2023/07/07 03:23:02;;;;;;;15.13;13.63;;;21.40;99.90;;;21.89;74.85;95022.91;4962718;28;20463;-61
2023/07/07 03:25:30;;;;;;;16.73;12.90;;;21.40;99.90;;;21.91;74.80;95024.34;4960144;28;20480;-66
2023/07/07 03:27:57;;;;;;;16.00;12.70;;;21.40;99.90;;;21.94;74.07;95012.41;4964054;28;20456;-66
2023/07/07 03:30:26;;;;;;;19.50;12.47;;;21.50;99.90;;;21.96;73.94;95015.69;4960007;28;20556;-65
2023/07/07 03:32:53;;;;;;;22.93;14.03;;;21.50;99.90;;;21.96;74.00;95015.69;4963889;28;20455;-60
2023/07/07 03:35:21;;;;;;;21.50;14.83;;;21.50;99.90;;;21.98;74.11;95024.34;4962657;28;20491;-60
2023/07/07 03:37:48;;;;;;;19.20;15.10;;;21.50;99.90;;;22.02;74.19;95028.25;4962886;28;20567;-65
2023/07/07 03:40:15;;;;;;;17.00;14.73;;;21.50;99.90;;;22.06;73.73;95020.63;4960239;28;20486;-61
2023/07/07 03:42:42;;;;;;;16.73;13.83;;;21.60;99.90;;;22.10;73.56;95022.69;4963300;28;20537;-62
2023/07/07 03:45:11;;;;;;;21.13;16.07;;;21.60;99.90;;;22.15;74.07;95017.53;4959407;28;20487;-66
2023/07/07 03:47:39;;;;;;;19.70;15.87;;;21.70;99.90;;;22.23;73.12;95018.34;4961546;28;21013;-66
2023/07/07 03:50:09;;;;;;;20.00;16.50;;;21.70;99.90;;;22.28;72.84;95024.72;4963412;28;20982;-66
2023/07/07 03:52:36;;;;;;;23.23;16.57;;;21.80;99.90;;;22.31;72.97;95027.03;4962112;28;20540;-66
2023/07/07 03:55:04;;;;;;;19.77;14.57;;;21.80;99.90;;;22.35;73.14;95024.75;4968152;28;20479;-60
2023/07/07 03:57:31;;;;;;;19.73;16.13;;;21.90;99.90;;;22.38;72.90;95027.00;4967033;28;20898;-67
2023/07/07 03:59:58;;;;;;;23.50;16.20;;;21.90;99.90;;;22.41;73.17;95034.63;4966600;28;20482;-60
2023/07/07 04:02:26;;;;;;;18.10;16.20;;;21.90;99.90;;;22.43;72.81;95037.91;4962062;28;20513;-67
2023/07/07 04:04:55;;;;;;;24.80;15.17;;;22.00;99.90;;;22.47;72.69;95028.44;4967074;28;20486;-60
2023/07/07 04:07:22;;;;;;;21.50;15.77;;;22.00;99.90;;;22.48;72.51;95032.75;4967293;28;20458;-66
2023/07/07 04:09:49;;;;;;;27.20;16.30;;;22.00;99.90;;;22.53;73.00;95037.50;4963268;28;20498;-62
2023/07/07 04:12:16;;;;;;;27.20;17.60;;;22.00;99.90;;;22.55;72.78;95035.41;4967007;28;20604;-67
2023/07/07 04:14:44;;;;;;;20.27;16.27;;;22.10;99.90;;;22.58;73.22;95039.53;4966397;28;20479;-66
2023/07/07 04:17:11;;;;;;;22.63;17.00;;;22.10;99.90;;;22.62;72.94;95041.59;4966609;28;20456;-61
2023/07/07 04:19:38;;;;;;;23.17;18.03;;;22.10;99.90;;;22.65;73.11;95038.50;4966310;28;20847;-62
2023/07/07 04:22:07;;;;;;;17.87;16.07;;;22.20;99.90;;;22.69;73.20;95037.00;4965861;28;20906;-66
2023/07/07 04:24:34;;;;;;;18.80;15.37;;;22.20;99.90;;;22.73;72.92;95030.19;4967124;28;20479;-61
2023/07/07 04:27:02;;;;;;;23.00;17.10;;;22.20;99.90;;;22.84;72.36;95031.41;4965624;28;20467;-61
2023/07/07 04:29:29;;;;;;;22.90;17.23;;;22.30;99.90;;;22.90;72.11;95027.06;4966202;28;20475;-62
2023/07/07 04:31:56;;;;;;;23.07;19.60;;;22.40;99.90;;;22.96;72.62;95023.53;4965432;28;20452;-60
2023/07/07 04:34:24;;;;;;;32.37;17.33;;;22.50;99.90;;;23.03;72.58;95031.53;4965209;28;20521;-60
2023/07/07 04:36:51;;;;;;;19.90;16.63;;;22.50;99.90;;;23.09;72.25;95028.84;4966005;28;20964;-61
2023/07/07 04:39:20;;;;;;;21.30;17.03;;;22.60;99.90;;;23.19;72.20;95036.44;4962877;28;20471;-60
2023/07/07 04:41:50;;;;;;;22.20;17.77;;;22.70;99.90;;;23.31;71.56;95041.13;4965127;28;20544;-61
2023/07/07 04:44:17;;;;;;;24.30;17.43;;;22.80;99.90;;;23.40;71.64;95045.19;4965972;28;20474;-61
2023/07/07 04:46:44;;;;;;;29.43;16.63;;;22.90;99.90;;;23.51;71.58;95049.06;4962509;28;20456;-64
2023/07/07 04:49:11;;;;;;;24.60;16.77;;;23.00;99.90;;;23.60;70.48;95048.56;4966386;28;20475;-66
2023/07/07 04:51:41;;;;;;;19.57;16.23;;;23.10;99.90;;;23.70;70.96;95055.34;4965279;28;20977;-61
2023/07/07 04:54:14;;;;;;;21.03;17.63;;;23.20;99.90;;;23.75;70.10;95055.50;4965327;28;20459;-62
2023/07/07 04:56:44;;;;;;;27.20;17.60;;;23.20;99.90;;;23.79;69.92;95054.84;4965651;28;20462;-66
2023/07/07 04:59:12;;;;;;;22.43;17.40;;;23.30;99.90;;;23.86;70.47;95059.38;4966267;28;20566;-66
2023/07/07 05:01:40;;;;;;;18.00;15.80;;;23.40;99.90;;;23.90;69.68;95058.72;4965013;28;20514;-60
2023/07/07 05:04:08;;;;;;;27.73;18.13;;;23.40;99.90;;;23.95;70.25;95061.59;4965482;28;20971;-62
2023/07/07 05:06:37;;;;;;;24.77;18.27;;;23.40;99.90;;;23.99;69.50;95059.28;4965776;28;20534;-65
2023/07/07 05:09:05;;;;;;;20.47;17.47;;;23.50;99.90;;;23.99;69.85;95052.03;4964126;28;20835;-62
2023/07/07 05:11:33;;;;;;;26.53;15.40;;;23.50;99.90;;;24.00;69.22;95044.81;4962143;28;20532;-66
2023/07/07 05:14:02;;;;;;;19.53;17.40;;;23.50;99.90;;;23.99;69.16;95046.66;4965645;28;20455;-67
2023/07/07 05:16:31;;;;;;;20.93;17.30;;;23.50;99.90;;;24.01;70.10;95062.56;4965400;28;20462;-62
2023/07/07 05:19:00;;;;;;;32.90;19.30;;;23.50;99.90;;;24.02;69.84;95050.78;4965369;28;20971;-66
2023/07/07 05:21:27;;;;;;;20.80;18.00;;;23.60;99.90;;;24.06;69.40;95059.22;4964496;28;20950;-66
2023/07/07 05:23:55;;;;;;;19.50;17.50;;;23.60;99.90;;;24.09;69.27;95059.63;4965193;28;20459;-62
2023/07/07 05:26:22;;;;;;;19.80;17.00;;;23.60;99.90;;;24.15;69.22;95061.44;4965480;28;20455;-66
2023/07/07 05:28:51;;;;;;;21.47;17.63;;;23.70;99.90;;;24.23;69.49;95060.34;4965124;28;20885;-62
2023/07/07 05:31:20;;;;;;;29.50;18.27;;;23.70;99.90;;;24.31;69.01;95060.03;4965049;28;20558;-62
2023/07/07 05:33:47;;;;;;;21.83;17.87;;;23.80;99.90;;;24.39;68.57;95067.00;4964426;28;20486;-61
2023/07/07 05:36:14;;;;;;;20.90;17.50;;;23.90;99.90;;;24.45;68.97;95062.63;4965150;28;20811;-61
2023/07/07 05:38:42;;;;;;;19.60;16.60;;;23.90;99.90;;;24.52;68.76;95060.66;4962366;28;20793;-66
2023/07/07 05:41:11;;;;;;;21.20;17.20;;;24.00;99.90;;;24.60;67.94;95068.50;4965646;28;20843;-68
2023/07/07 05:43:38;;;;;;;20.40;18.20;;;24.10;99.90;;;24.66;67.58;95073.00;4966943;28;21123;-60
2023/07/07 05:46:07;;;;;;;18.57;16.37;;;24.10;99.90;;;24.70;67.29;95074.16;4967552;28;20475;-67
2023/07/07 05:48:36;;;;;;;22.27;17.70;;;24.20;99.90;;;24.76;67.46;95071.66;4966629;28;20545;-62
2023/07/07 05:51:06;;;;;;;21.00;17.57;;;24.30;99.90;;;24.79;67.04;95072.00;4964774;28;21072;-65
2023/07/07 05:53:34;;;;;;;21.17;16.67;;;24.30;99.90;;;24.81;66.86;95080.66;4964730;28;21270;-61
2023/07/07 05:56:06;;;;;;;25.23;18.10;;;24.30;99.90;;;24.83;67.19;95083.13;4961252;28;20491;-62
2023/07/07 05:58:34;;;;;;;21.37;18.00;;;24.30;99.90;;;24.85;66.58;95078.38;4961814;28;20447;-61
2023/07/07 06:01:01;;;;;;;25.63;17.57;;;24.30;99.90;;;24.84;67.06;95084.78;4964336;28;20481;-61
2023/07/07 06:03:29;;;;;;;26.17;16.90;;;24.30;99.90;;;24.85;66.59;95081.06;4964237;28;20609;-60
2023/07/07 06:05:57;;;;;;;26.37;17.40;;;24.40;99.90;;;24.84;66.95;95080.22;4963420;28;20532;-60
2023/07/07 06:08:25;;;;;;;27.63;18.00;;;24.30;99.90;;;24.87;66.86;95079.78;4964986;28;20466;-62
2023/07/07 06:10:52;;;;;;;32.80;18.27;;;24.40;99.90;;;24.92;66.48;95080.97;4964568;28;21006;-62
2023/07/07 06:13:23;;;;;;;22.70;16.70;;;24.40;99.90;;;25.00;66.52;95083.38;4964891;28;20588;-63
2023/07/07 06:15:51;;;;;;;29.17;16.80;;;24.40;99.90;;;25.08;66.25;95082.25;4964211;28;20549;-62
2023/07/07 06:18:18;;;;;;;25.20;17.83;;;24.50;99.90;;;25.15;66.09;95091.06;4965940;28;20495;-66
2023/07/07 06:20:48;;;;;;;18.90;16.50;;;24.60;99.90;;;25.21;66.12;95082.09;4961022;28;20532;-62
2023/07/07 06:23:17;;;;;;;20.03;16.50;;;24.70;99.90;;;25.28;65.66;95080.13;4964263;28;21061;-66
2023/07/07 06:25:44;;;;;;;23.77;15.73;;;24.70;99.90;;;25.35;65.93;95091.66;4964942;28;20506;-65
2023/07/07 06:28:11;;;;;;;22.27;15.40;;;24.80;99.90;;;25.43;65.38;95081.63;4964617;28;20478;-61
2023/07/07 06:30:39;;;;;;;22.10;16.10;;;24.90;99.90;;;25.49;65.58;95075.34;4964449;28;20483;-67
2023/07/07 06:33:06;;;;;;;24.77;15.60;;;24.90;99.90;;;25.55;64.78;95086.00;4963157;28;21013;-65
2023/07/07 06:35:33;;;;;;;18.13;16.20;;;25.00;99.90;;;25.62;65.04;95085.91;4964841;28;20525;-65
2023/07/07 06:38:01;;;;;;;23.63;15.33;;;25.10;99.90;;;25.76;65.04;95084.69;4964458;28;20446;-65
2023/07/07 06:40:30;;;;;;;29.80;17.40;;;25.20;99.90;;;26.03;64.15;95095.09;4965172;28;20897;-60
2023/07/07 06:42:58;;;;;;;20.20;15.87;;;25.40;99.90;;;26.32;63.88;95095.28;4960510;28;21819;-66
2023/07/07 06:45:25;;;;;;;22.33;15.00;;;25.70;99.90;;;26.59;62.84;95095.63;4964184;28;20483;-62
2023/07/07 06:47:53;;;;;;;19.90;15.40;;;25.90;99.90;;;26.87;62.21;95101.41;4962281;28;20538;-62
2023/07/07 06:50:26;;;;;;;16.07;14.37;;;26.20;99.90;;;27.07;61.64;95106.41;4963623;28;20813;-62
2023/07/07 06:52:53;;;;;;;21.00;14.93;;;26.40;99.90;;;27.19;60.92;95093.72;4962029;28;20531;-66
2023/07/07 06:55:21;;;;;;;17.40;14.63;;;26.60;99.90;;;27.29;60.81;95098.50;4965861;28;21010;-66
2023/07/07 06:57:49;;;;;;;19.50;14.80;;;26.70;99.90;;;27.37;60.45;95100.84;4964073;28;20447;-61
2023/07/07 07:00:17;;;;;;;24.47;16.27;;;26.80;99.90;;;27.45;59.93;95110.44;4964168;28;20479;-69
2023/07/07 07:02:45;;;;;;;17.60;14.27;;;26.80;99.90;;;27.49;59.90;95120.53;4963345;28;20490;-61
2023/07/07 07:05:12;;;;;;;21.50;14.23;;;26.90;99.90;;;27.45;59.16;95116.69;4964258;28;20910;-66
2023/07/07 07:07:39;;;;;;;21.10;15.13;;;26.90;99.90;;;27.41;59.19;95118.22;4964118;28;20458;-62
2023/07/07 07:10:07;;;;;;;18.33;15.10;;;26.90;99.90;;;27.35;59.51;95113.78;4964410;28;20487;-65
2023/07/07 07:12:34;;;;;;;25.23;14.13;;;26.80;99.90;;;27.31;59.41;95123.38;4954870;28;20970;-65
2023/07/07 07:15:03;;;;;;;18.80;16.13;;;26.80;99.90;;;27.25;58.99;95117.06;4961456;28;20471;-65
2023/07/07 07:17:30;;;;;;;22.00;14.97;;;26.70;99.90;;;27.22;59.48;95119.41;4957029;28;20951;-62
2023/07/07 07:19:58;;;;;;;27.40;16.93;;;26.70;99.90;;;27.19;59.26;95121.53;4959825;28;20482;-62
2023/07/07 07:22:25;;;;;;;42.17;19.40;;;26.60;99.90;;;27.16;59.17;95116.59;4960884;28;21014;-61
2023/07/07 07:24:52;;;;;;;28.37;16.27;;;26.60;99.90;;;27.17;59.32;95123.66;4960192;28;20540;-64
2023/07/07 07:27:19;;;;;;;19.13;17.03;;;26.60;99.90;;;27.13;59.56;95122.47;4956516;28;20464;-60
2023/07/07 07:29:47;;;;;;;62.93;20.10;;;26.60;99.90;;;27.16;59.30;95130.09;4960125;28;20628;-60
2023/07/07 07:32:15;;;;;;;30.63;17.77;;;26.60;99.90;;;27.16;59.66;95132.81;4959377;28;20474;-69
2023/07/07 07:34:43;;;;;;;29.03;16.70;;;26.60;99.90;;;27.16;59.55;95127.41;4958861;28;20475;-61
2023/07/07 07:37:10;;;;;;;21.43;16.83;;;26.60;99.90;;;27.22;59.21;95124.81;4959770;28;20456;-62
2023/07/07 07:39:38;;;;;;;17.93;15.30;;;26.60;99.90;;;27.30;58.99;95117.16;4958547;28;20475;-60
2023/07/07 07:42:06;;;;;;;27.50;16.80;;;26.70;99.90;;;27.43;59.04;95126.09;4956411;28;20502;-60
2023/07/07 07:44:33;;;;;;;17.80;15.67;;;26.80;99.90;;;27.66;59.30;95126.00;4958630;28;20582;-68
2023/07/07 07:47:00;;;;;;;29.03;15.00;;;27.00;99.90;;;27.97;58.76;95120.38;4957763;28;20460;-69
2023/07/07 07:49:29;;;;;;;23.17;14.57;;;27.30;99.90;;;28.32;57.59;95132.88;4963274;28;20604;-61
2023/07/07 07:51:57;;;;;;;15.23;13.73;;;27.60;99.90;;;28.63;57.71;95131.53;4956562;28;20824;-61
2023/07/07 07:54:25;;;;;;;18.13;13.47;;;27.90;99.90;;;28.90;56.78;95136.25;4962567;28;20475;-61
2023/07/07 07:56:53;;;;;;;20.00;12.80;;;28.20;99.60;;;29.19;55.80;95130.66;4964139;28;20462;-62
2023/07/07 07:59:20;;;;;;;17.33;12.27;;;28.50;99.00;;;29.45;55.49;95131.84;4967959;28;20470;-70
2023/07/07 08:01:48;;;;;;;16.57;12.70;;;28.70;98.40;;;29.73;54.80;95128.13;4974317;28;20451;-70
2023/07/07 08:04:15;;;;;;;17.00;11.53;;;29.00;97.70;;;30.04;53.12;95126.59;4970009;28;20227;-70
2023/07/07 08:06:44;;;;;;;27.77;14.03;;;29.30;97.30;;;30.33;53.77;95134.41;4961894;28;20492;-72
2023/07/07 08:09:12;;;;;;;15.47;12.20;;;29.60;97.00;;;30.58;52.20;95141.19;4968634;28;20234;-61
2023/07/07 08:12:00;;;;;;;21.40;12.50;;;29.80;95.70;;;30.83;50.73;95137.00;4967107;28;20208;-70
2023/07/07 08:14:31;;;;;;;21.77;12.37;;;30.10;95.00;;;30.93;51.18;95137.09;4963243;28;20734;-69
2023/07/07 08:17:04;;;;;;;17.23;12.47;;;30.20;94.80;;;30.88;51.23;95137.06;4967271;28;20645;-71
2023/07/07 08:19:34;;;;;;;16.40;13.17;;;30.30;94.30;;;30.79;51.59;95146.78;4967494;28;20234;-60
2023/07/07 08:22:05;;;;;;;17.73;11.63;;;30.20;93.90;;;30.66;51.83;95151.56;4964693;28;20840;-61
2023/07/07 08:24:38;;;;;;;13.80;11.93;;;30.20;94.10;;;30.64;51.69;95151.00;4966672;28;20224;-70
2023/07/07 08:27:06;;;;;;;19.20;12.47;;;30.10;94.30;;;30.74;52.19;95147.56;4966408;28;20223;-61
2023/07/07 08:29:33;;;;;;;21.13;13.57;;;30.20;94.20;;;30.94;51.24;95157.75;4966791;28;20226;-69
2023/07/07 08:32:01;;;;;;;14.20;12.70;;;30.30;94.20;;;31.22;49.19;95155.78;4962035;28;20204;-72
2023/07/07 08:34:28;;;;;;;12.80;11.40;;;30.50;92.60;;;31.48;50.11;95147.75;4966956;28;20228;-63
2023/07/07 08:36:59;;;;;;;24.80;12.65;;;30.70;92.90;;;31.78;49.69;95139.72;4965306;28;20203;-70
2023/07/07 08:39:29;;;;;;;14.32;10.85;;;31.00;92.40;;;32.04;48.29;95139.81;4966511;28;20650;-60
2023/07/07 08:42:00;;;;;;;14.85;11.70;;;31.30;91.30;;;32.22;48.13;95143.94;4963755;28;20295;-73
2023/07/07 08:44:29;;;;;;;19.08;12.52;;;31.50;90.80;;;32.31;47.61;95136.06;4966304;28;20872;-71
2023/07/07 08:47:15;;;;;;;13.82;12.27;;;31.70;90.30;;;32.28;46.95;95144.75;4965632;28;20247;-60
2023/07/07 08:49:51;;;;;;;13.00;11.70;;;31.60;89.40;;;32.29;47.75;95140.97;4967383;28;20228;-61
2023/07/07 08:52:32;;;;;;;13.35;10.73;;;31.70;90.10;;;32.51;45.80;95140.69;4965107;28;20264;-62
2023/07/07 08:55:08;;;;;;;16.75;12.15;;;31.80;87.90;;;32.67;47.28;95133.38;4963837;28;20323;-71
2023/07/07 08:57:41;;;;;;;21.23;13.85;;;32.00;89.00;;;32.79;46.72;95139.34;4961773;28;20246;-61
2023/07/07 09:00:17;;;;;;;18.58;12.80;;;32.10;87.40;;;32.86;46.83;95133.66;4964393;28;20270;-68
2023/07/07 09:03:09;;;;;;;15.45;12.15;;;32.20;86.80;;;32.99;45.54;95132.25;4964292;28;20259;-61
2023/07/07 09:05:45;;;;;;;11.93;10.65;;;32.30;84.50;;;33.09;44.78;95128.69;4963267;28;20220;-61
2023/07/07 09:08:15;;;;;;;15.65;12.07;;;32.40;82.90;;;33.18;45.46;95121.56;4966501;28;20226;-70
2023/07/07 09:10:51;;;;;;;17.45;11.98;;;32.50;83.20;;;33.28;45.16;95121.59;4966285;28;20235;-70
2023/07/07 09:13:23;;;;;;;12.45;11.10;;;32.60;82.70;;;33.37;44.11;95113.63;4966258;28;20272;-61
2023/07/07 09:16:00;;;;;;;13.63;11.95;;;32.70;81.50;;;33.41;44.00;95118.25;4963228;28;20336;-69
2023/07/07 09:18:30;;;;;;;12.95;11.70;;;32.80;80.40;;;33.50;44.27;95118.50;4959269;28;20312;-61
2023/07/07 09:21:02;;;;;;;16.45;11.60;;;32.80;79.90;;;33.59;43.81;95110.56;4967859;28;20292;-70
2023/07/07 09:23:31;;;;;;;12.45;11.15;;;32.90;78.40;;;33.67;43.95;95106.44;4966091;28;20657;-61
2023/07/07 09:26:02;;;;;;;21.83;11.02;;;33.00;78.40;;;33.77;44.11;95100.94;4966044;28;20234;-69
2023/07/07 09:28:33;;;;;;;21.67;11.27;;;33.10;78.50;;;33.85;44.14;95111.28;4966355;28;20232;-60
2023/07/07 09:31:20;;;;;;;24.40;11.63;;;33.20;78.20;;;34.00;43.29;95101.34;4961508;28;20452;-71
2023/07/07 09:33:47;;;;;;;34.72;11.27;;;33.30;77.80;;;34.15;43.53;95116.81;4958468;28;20232;-73
2023/07/07 09:36:18;;;;;;;14.57;11.55;;;33.40;76.50;;;34.26;43.35;95116.47;4962054;28;20214;-71
2023/07/07 09:38:53;;;;;;;31.27;12.90;;;33.50;76.60;;;34.42;43.69;95119.09;4962725;28;20199;-71
2023/07/07 09:41:30;;;;;;;14.45;10.93;;;33.70;76.50;;;34.59;42.42;95118.69;4962540;28;20234;-72
2023/07/07 09:44:14;;;;;;;25.08;12.98;;;33.80;75.50;;;34.73;40.99;95114.19;4959129;28;20234;-63
2023/07/07 09:46:46;;;;;;;12.90;11.43;;;34.00;73.20;;;34.85;42.60;95110.31;4957645;28;20200;-71
2023/07/07 09:49:19;;;;;;;13.32;10.80;;;34.10;73.90;;;35.00;41.91;95116.44;4965695;28;20243;-62
2023/07/07 09:51:51;;;;;;;13.32;10.75;;;34.30;72.70;;;35.12;42.16;95107.00;4962657;28;20250;-71
2023/07/07 09:54:18;;;;;;;13.57;10.25;;;34.40;72.80;;;35.16;41.13;95111.59;4965207;28;20232;-62
2023/07/07 09:56:57;;;;;;;23.95;12.55;;;34.50;71.60;;;35.21;40.83;95108.00;4966017;28;20302;-70
2023/07/07 09:59:28;;;;;;;20.17;11.65;;;34.50;71.30;;;35.23;40.72;95114.00;4963599;28;20216;-70
2023/07/07 10:01:55;;;;;;;12.18;10.98;;;34.50;70.70;;;35.27;41.41;95106.88;4965197;28;20203;-62
2023/07/07 10:04:24;;;;;;;15.85;11.23;;;34.60;70.80;;;35.35;40.42;95108.97;4956788;28;20738;-61
2023/07/07 10:06:54;;;;;;;13.80;9.55;;;34.70;70.00;;;35.40;40.50;95108.09;4959291;28;20211;-71
2023/07/07 10:09:21;;;;;;;12.77;9.48;;;34.70;68.90;;;35.32;40.45;95100.53;4955182;28;20228;-61
2023/07/07 10:11:50;;;;;;;12.00;9.75;;;34.60;66.80;;;35.19;38.91;95105.56;4961279;28;20597;-61
2023/07/07 10:14:18;;;;;;;15.38;9.48;;;34.50;65.90;;;35.00;40.07;95102.75;4960747;28;20307;-62
2023/07/07 10:17:02;;;;;;;11.77;10.32;;;34.40;67.30;;;34.85;40.52;95102.09;4957481;28;20257;-70